Milwaukee, Wisconsin
Traffic Map
Current Weather Conditions
Milwaukee, Wisconsin
Broken Clouds
Broken Clouds
17°
Feels Like: 17°
Wind Chill: 17° Ceiling: 25000
Heat Index: 17° Visibility: 10mi
Dew Point: Wind: 5mph
Humidity: 62% Direction: 150° (SSE)
Pressure: 30.07in Gusts: 0mph
Raw Report DataKMKE 282352Z 15004KT 10SM FEW070 SCT080 BKN250 17/09 A3007 RMK AO2 SLP181 T01670094 10189 20167 58009
Traffic Incident Summary
Active as of:
Severity:
Category:
InformationThere was an issue retrieving the traffic information for this location. Please try a different location or try again shortly.
Advertisements
Track Severe Weather on mobile